createdAt,value
2019-02-20T00:02:01.244Z,70.28
2019-02-20T00:04:30.433Z,70.42
2019-02-20T00:06:59.650Z,70.44
2019-02-20T00:09:28.951Z,70.44
2019-02-20T00:11:58.191Z,70.30
2019-02-20T00:14:27.460Z,70.36
2019-02-20T00:16:56.737Z,70.51
2019-02-20T00:19:26.057Z,70.41
2019-02-20T00:21:55.347Z,70.62
2019-02-20T00:24:24.617Z,70.36
2019-02-20T00:26:53.928Z,70.29
2019-02-20T00:29:23.251Z,70.29
2019-02-20T00:31:52.445Z,69.93
2019-02-20T00:34:21.666Z,69.95
2019-02-20T00:36:50.937Z,70.16
2019-02-20T00:39:20.155Z,69.89
2019-02-20T00:41:49.453Z,69.98
2019-02-20T00:44:40.690Z,69.92
2019-02-20T00:47:28.991Z,70.04
2019-02-20T00:49:58.207Z,70.21
2019-02-20T00:52:49.368Z,70.21
2019-02-20T00:55:10.224Z,70.06
2019-02-20T00:57:39.424Z,70.46
2019-02-20T01:00:09.747Z,70.23
2019-02-20T01:02:39.035Z,70.46
2019-02-20T01:05:08.265Z,70.44
2019-02-20T01:07:37.574Z,70.40
2019-02-20T01:10:07.438Z,70.51
2019-02-20T01:12:36.749Z,70.32
2019-02-20T01:15:06.179Z,70.32
2019-02-20T01:17:35.396Z,70.30
2019-02-20T01:20:04.943Z,70.30
2019-02-20T01:22:34.254Z,70.43
2019-02-20T01:25:03.559Z,70.18
2019-02-20T01:27:32.898Z,70.44
2019-02-20T01:30:02.107Z,70.44
2019-02-20T01:32:31.327Z,70.38
2019-02-20T01:35:00.559Z,70.45
2019-02-20T01:37:29.822Z,70.17
2019-02-20T01:39:59.061Z,70.11
2019-02-20T01:42:28.386Z,69.86
2019-02-20T01:44:57.585Z,69.91
2019-02-20T01:47:26.879Z,69.83
2019-02-20T01:49:56.264Z,70.07
2019-02-20T01:52:25.487Z,70.07
2019-02-20T01:54:54.763Z,70.35
2019-02-20T01:57:24.091Z,70.35
2019-02-20T01:59:53.289Z,70.37
2019-02-20T02:02:22.561Z,70.37
2019-02-20T02:04:51.769Z,70.21
2019-02-20T02:07:20.959Z,70.21
2019-02-20T02:09:50.298Z,70.07
2019-02-20T02:12:19.559Z,70.38
2019-02-20T02:14:48.830Z,70.53
2019-02-20T02:17:18.181Z,70.36
2019-02-20T02:19:47.389Z,70.24
2019-02-20T02:22:16.664Z,70.53
2019-02-20T02:24:45.927Z,70.48
2019-02-20T02:27:15.160Z,70.52
2019-02-20T02:29:44.399Z,70.61
2019-02-20T02:32:13.627Z,70.81
2019-02-20T02:34:42.905Z,70.48
2019-02-20T02:37:12.268Z,70.48
2019-02-20T02:39:41.596Z,70.79
2019-02-20T02:42:10.767Z,70.89
2019-02-20T02:44:40.073Z,71.13
2019-02-20T02:47:09.316Z,71.13
2019-02-20T02:49:38.559Z,71.40
2019-02-20T02:52:07.894Z,71.21
2019-02-20T02:54:37.182Z,71.20
2019-02-20T02:57:06.383Z,71.79
2019-02-20T02:59:35.590Z,71.70
2019-02-20T03:02:04.791Z,71.84
2019-02-20T03:04:34.025Z,71.75
2019-02-20T03:07:03.284Z,71.75
2019-02-20T03:09:32.463Z,71.89
2019-02-20T03:12:01.723Z,71.83
2019-02-20T03:14:30.982Z,71.70
2019-02-20T03:17:00.233Z,71.86
2019-02-20T03:19:29.427Z,72.20
2019-02-20T03:21:58.815Z,71.85
2019-02-20T03:24:28.086Z,71.85
2019-02-20T03:26:57.388Z,72.27
2019-02-20T03:29:26.611Z,72.33
2019-02-20T03:31:55.866Z,72.33
2019-02-20T03:34:25.206Z,72.44
2019-02-20T03:36:54.464Z,72.81
2019-02-20T03:39:23.696Z,72.81
2019-02-20T03:41:52.931Z,72.46
2019-02-20T03:44:22.194Z,72.48
2019-02-20T03:46:51.499Z,72.63
2019-02-20T03:49:20.692Z,72.63
2019-02-20T03:51:49.969Z,72.96
2019-02-20T03:54:19.325Z,72.96
2019-02-20T03:56:48.659Z,72.85
2019-02-20T03:59:18.001Z,73.16
2019-02-20T04:01:47.263Z,73.03
2019-02-20T04:04:16.475Z,73.65
2019-02-20T04:06:45.669Z,73.65
2019-02-20T04:09:14.967Z,73.69
2019-02-20T04:11:44.219Z,73.69
2019-02-20T04:14:13.471Z,73.53
2019-02-20T04:16:42.776Z,73.53
2019-02-20T04:19:12.062Z,74.00
2019-02-20T04:21:41.392Z,73.80
2019-02-20T04:24:10.592Z,74.12
2019-02-20T04:26:39.828Z,74.12
2019-02-20T04:29:09.037Z,73.95
2019-02-20T04:31:38.255Z,73.92
2019-02-20T04:34:07.575Z,74.13
2019-02-20T04:36:36.885Z,74.02
2019-02-20T04:39:06.910Z,73.91
2019-02-20T04:41:36.166Z,73.85
2019-02-20T04:44:05.436Z,74.09
2019-02-20T04:46:34.690Z,73.77
2019-02-20T04:49:03.907Z,73.39
2019-02-20T04:51:33.291Z,73.60
2019-02-20T04:54:02.511Z,73.60
2019-02-20T04:56:31.785Z,73.44
2019-02-20T04:59:01.325Z,73.33
2019-02-20T05:01:30.559Z,73.49
2019-02-20T05:03:59.932Z,73.24
2019-02-20T05:06:29.195Z,73.15
2019-02-20T05:08:58.418Z,72.95
2019-02-20T05:11:27.697Z,73.02
2019-02-20T05:13:57.036Z,73.02
2019-02-20T05:16:26.312Z,73.11
2019-02-20T05:18:55.615Z,73.11
2019-02-20T05:21:24.896Z,72.94
2019-02-20T05:23:54.200Z,72.94
2019-02-20T05:26:23.499Z,73.10
2019-02-20T05:28:52.752Z,73.28
2019-02-20T05:31:21.983Z,72.98
2019-02-20T05:33:51.292Z,72.85
2019-02-20T05:36:20.502Z,72.90
2019-02-20T05:38:49.863Z,72.60
2019-02-20T05:41:19.013Z,72.44
2019-02-20T05:43:48.208Z,72.37
2019-02-20T05:46:17.409Z,72.15
2019-02-20T05:48:46.678Z,72.15
2019-02-20T05:51:15.909Z,72.07
2019-02-20T05:53:45.144Z,72.24
2019-02-20T05:56:14.475Z,71.96
2019-02-20T05:58:43.686Z,71.94
2019-02-20T06:01:13.082Z,71.77
2019-02-20T06:03:42.407Z,71.77
2019-02-20T06:06:11.731Z,71.53
2019-02-20T06:08:40.989Z,71.76
2019-02-20T06:11:14.733Z,71.65
2019-02-20T06:13:39.603Z,71.64
2019-02-20T06:16:09.166Z,71.64
2019-02-20T06:18:38.536Z,71.81
2019-02-20T06:21:07.950Z,71.84
2019-02-20T06:23:37.194Z,72.61
2019-02-20T06:26:06.441Z,71.37
2019-02-20T06:28:35.734Z,71.06
2019-02-20T06:31:05.020Z,70.75
2019-02-20T06:33:34.257Z,70.79
2019-02-20T06:36:03.733Z,70.75
2019-02-20T06:38:32.976Z,70.74
2019-02-20T06:41:02.236Z,70.96
2019-02-20T06:43:31.498Z,70.99
2019-02-20T06:46:00.691Z,71.07
2019-02-20T06:48:29.924Z,71.07
2019-02-20T06:50:59.169Z,70.97
2019-02-20T06:53:28.466Z,71.09
2019-02-20T06:55:57.707Z,70.84
2019-02-20T06:58:26.949Z,70.84
2019-02-20T07:00:56.279Z,70.74
2019-02-20T07:03:25.511Z,70.62
2019-02-20T07:07:04.004Z,70.60
2019-02-20T07:10:22.117Z,70.93
2019-02-20T07:13:07.681Z,70.65
2019-02-20T07:16:01.578Z,70.73
2019-02-20T07:19:04.890Z,70.64
2019-02-20T07:22:16.479Z,70.27
2019-02-20T07:25:03.084Z,70.13
2019-02-20T07:27:41.561Z,69.96
2019-02-20T07:30:10.985Z,70.27
2019-02-20T07:32:40.249Z,69.82
2019-02-20T07:35:10.724Z,70.34
2019-02-20T07:37:47.249Z,70.42
2019-02-20T07:40:19.677Z,70.37
2019-02-20T07:42:48.917Z,70.29
2019-02-20T07:45:18.158Z,70.43
2019-02-20T07:47:47.523Z,70.43
2019-02-20T07:50:18.979Z,70.65
2019-02-20T07:52:49.333Z,70.94
2019-02-20T07:55:18.605Z,71.08
2019-02-20T07:57:47.850Z,70.78
2019-02-20T08:00:17.060Z,70.78
2019-02-20T08:02:46.343Z,71.12
2019-02-20T08:05:15.626Z,71.12
2019-02-20T08:07:44.855Z,71.10
2019-02-20T08:10:14.080Z,71.01
2019-02-20T08:12:52.563Z,71.10
2019-02-20T08:15:21.797Z,71.10
2019-02-20T08:17:51.289Z,71.06
2019-02-20T08:20:20.516Z,71.56
2019-02-20T08:22:49.737Z,71.56
2019-02-20T08:25:22.972Z,71.15
2019-02-20T08:27:48.288Z,69.86
2019-02-20T08:30:17.516Z,69.86
2019-02-20T08:32:46.796Z,68.93
2019-02-20T08:35:16.028Z,69.29
2019-02-20T08:37:45.432Z,69.06
2019-02-20T08:40:15.561Z,68.91
2019-02-20T08:42:45.011Z,68.88
2019-02-20T08:45:14.289Z,68.68
2019-02-20T08:47:43.547Z,68.88
2019-02-20T08:50:12.909Z,69.65
2019-02-20T08:52:42.157Z,69.46
2019-02-20T08:55:11.459Z,69.11
2019-02-20T08:57:40.733Z,69.46
2019-02-20T09:00:12.236Z,69.42
2019-02-20T09:02:44.408Z,69.21
2019-02-20T09:05:13.665Z,68.41
2019-02-20T09:07:43.015Z,67.88
2019-02-20T09:10:12.288Z,67.84
2019-02-20T09:12:41.500Z,67.15
2019-02-20T09:15:10.829Z,66.86
2019-02-20T09:17:40.061Z,67.10
2019-02-20T09:20:11.989Z,67.19
2019-02-20T09:22:41.255Z,66.18
2019-02-20T09:25:19.286Z,67.10
2019-02-20T09:27:39.913Z,66.62
2019-02-20T09:30:11.232Z,66.72
2019-02-20T09:32:40.455Z,66.71
2019-02-20T09:35:09.843Z,66.69
2019-02-20T09:37:39.218Z,66.73
2019-02-20T09:40:11.334Z,66.46
2019-02-20T09:42:41.597Z,65.89
2019-02-20T09:45:11.436Z,65.89
2019-02-20T09:47:40.658Z,65.37
2019-02-20T09:50:09.884Z,64.24
2019-02-20T09:52:39.307Z,63.44
2019-02-20T09:55:09.703Z,63.95
2019-02-20T09:57:39.229Z,62.72
2019-02-20T10:00:11.317Z,63.25
2019-02-20T10:02:40.589Z,63.20
2019-02-20T10:05:10.271Z,61.92
2019-02-20T10:07:39.509Z,61.52
2019-02-20T10:10:08.845Z,61.18
2019-02-20T10:12:38.136Z,60.97
2019-02-20T10:15:08.387Z,60.67
2019-02-20T10:17:37.707Z,60.78
2019-02-20T10:20:07.885Z,60.09
2019-02-20T10:22:37.125Z,60.75
2019-02-20T10:25:06.593Z,60.70
2019-02-20T10:27:35.828Z,59.58
2019-02-20T10:30:06.332Z,60.10
2019-02-20T10:32:35.553Z,59.41
2019-02-20T10:35:05.767Z,59.82
2019-02-20T10:37:35.093Z,59.53
2019-02-20T10:40:04.351Z,60.48
2019-02-20T10:42:33.617Z,60.77
2019-02-20T10:45:02.897Z,58.45
2019-02-20T10:47:32.220Z,57.53
2019-02-20T10:50:01.454Z,58.16
2019-02-20T10:52:30.709Z,57.88
2019-02-20T10:54:59.935Z,57.38
2019-02-20T10:57:29.273Z,57.66
2019-02-20T10:59:58.497Z,57.81
2019-02-20T11:02:27.768Z,58.34
2019-02-20T11:04:57.132Z,58.22
2019-02-20T11:07:29.092Z,57.52
2019-02-20T11:09:58.299Z,58.04
2019-02-20T11:12:27.635Z,57.54
2019-02-20T11:14:56.905Z,56.75
2019-02-20T11:17:26.124Z,56.19
2019-02-20T11:19:55.427Z,56.78
2019-02-20T11:22:24.681Z,55.71
2019-02-20T11:24:53.952Z,55.50
2019-02-20T11:27:23.171Z,54.66
2019-02-20T11:29:52.398Z,54.14
2019-02-20T11:32:21.639Z,52.69
2019-02-20T11:34:50.860Z,52.00
2019-02-20T11:37:20.165Z,51.40
2019-02-20T11:39:49.375Z,51.09
2019-02-20T11:42:18.634Z,51.51
2019-02-20T11:44:47.923Z,51.04
2019-02-20T11:47:17.229Z,49.85
2019-02-20T11:49:46.511Z,50.38
2019-02-20T11:52:15.785Z,49.90
2019-02-20T11:54:44.997Z,50.54
2019-02-20T11:57:14.393Z,50.33
2019-02-20T11:59:43.731Z,49.74
2019-02-20T12:02:12.993Z,50.59
2019-02-20T12:04:42.259Z,50.37
2019-02-20T12:07:11.464Z,51.15
2019-02-20T12:09:40.682Z,51.20
2019-02-20T12:12:09.961Z,50.72
2019-02-20T12:14:39.189Z,50.39
2019-02-20T12:17:08.432Z,50.03
2019-02-20T12:19:39.333Z,49.03
2019-02-20T12:22:06.967Z,49.30
2019-02-20T12:24:36.233Z,48.17
2019-02-20T12:27:05.623Z,46.56
2019-02-20T12:29:34.859Z,46.32
2019-02-20T12:32:04.114Z,46.44
2019-02-20T12:34:33.358Z,45.77
2019-02-20T12:37:02.612Z,44.64
2019-02-20T12:39:31.922Z,44.14
2019-02-20T12:42:01.245Z,43.87
2019-02-20T12:44:30.537Z,42.95
2019-02-20T12:46:59.859Z,43.28
2019-02-20T12:49:29.069Z,43.85
2019-02-20T12:52:00.084Z,43.26
2019-02-20T12:54:27.531Z,43.74
2019-02-20T12:56:56.827Z,44.06
2019-02-20T12:59:26.117Z,43.40
2019-02-20T13:01:55.365Z,43.69
2019-02-20T13:04:24.724Z,44.01
2019-02-20T13:06:59.551Z,43.55
2019-02-20T13:09:23.147Z,44.45
2019-02-20T13:11:52.641Z,44.22
2019-02-20T13:14:21.893Z,45.16
2019-02-20T13:16:51.107Z,44.82
2019-02-20T13:19:20.422Z,44.83
2019-02-20T13:21:49.679Z,44.90
2019-02-20T13:24:18.933Z,44.58
2019-02-20T13:26:52.850Z,44.82
2019-02-20T13:29:17.438Z,43.96
2019-02-20T13:31:46.735Z,44.05
2019-02-20T13:34:15.983Z,43.46
2019-02-20T13:36:45.254Z,43.39
2019-02-20T13:39:14.537Z,43.49
2019-02-20T13:41:44.554Z,42.91
2019-02-20T13:44:13.860Z,44.03
2019-02-20T13:46:43.143Z,44.32
2019-02-20T13:49:12.466Z,43.44
2019-02-20T13:51:41.713Z,43.57
2019-02-20T13:54:10.932Z,42.67
2019-02-20T13:56:40.456Z,41.54
2019-02-20T13:59:09.691Z,41.25
2019-02-20T14:01:39.249Z,41.31
2019-02-20T14:04:08.565Z,40.81
2019-02-20T14:06:37.876Z,42.05
2019-02-20T14:09:07.187Z,42.76
2019-02-20T14:11:36.444Z,43.63
2019-02-20T14:14:05.785Z,43.84
2019-02-20T14:16:35.003Z,42.92
2019-02-20T14:19:04.353Z,44.75
2019-02-20T14:21:33.670Z,44.76
2019-02-20T14:24:02.959Z,45.27
2019-02-20T14:26:32.191Z,45.69
2019-02-20T14:29:01.414Z,46.30
2019-02-20T14:31:30.658Z,46.69
2019-02-20T14:33:59.889Z,46.98
2019-02-20T14:36:29.109Z,47.49
2019-02-20T14:38:58.480Z,47.49
2019-02-20T14:41:27.995Z,47.43
2019-02-20T14:43:57.653Z,47.52
2019-02-20T14:46:26.892Z,47.07
2019-02-20T14:48:56.116Z,46.98
2019-02-20T14:51:27.583Z,47.50
2019-02-20T14:53:55.660Z,47.54
2019-02-20T14:56:25.029Z,47.74
2019-02-20T14:58:54.351Z,47.78
2019-02-20T15:01:23.611Z,48.30
2019-02-20T15:03:52.865Z,48.62
2019-02-20T15:06:22.231Z,49.23
2019-02-20T15:08:51.467Z,48.92
2019-02-20T15:11:20.803Z,49.06
2019-02-20T15:13:50.131Z,50.40
2019-02-20T15:16:19.418Z,50.36
2019-02-20T15:18:48.645Z,50.12
2019-02-20T15:21:17.933Z,50.34
2019-02-20T15:23:47.658Z,50.60
2019-02-20T15:26:16.875Z,51.12
2019-02-20T15:28:46.177Z,51.17
2019-02-20T15:31:21.310Z,51.46
2019-02-20T15:33:49.048Z,51.57
2019-02-20T15:36:18.352Z,51.82
2019-02-20T15:38:47.645Z,51.86
2019-02-20T15:41:16.881Z,52.02
2019-02-20T15:43:46.182Z,52.21
2019-02-20T15:46:15.453Z,52.52
2019-02-20T15:48:44.670Z,52.35
2019-02-20T15:51:13.936Z,52.47
2019-02-20T15:53:43.242Z,53.13
2019-02-20T15:56:12.472Z,53.29
2019-02-20T15:58:41.781Z,53.30
2019-02-20T16:01:11.594Z,53.45
2019-02-20T16:03:40.211Z,53.63
2019-02-20T16:06:09.563Z,53.91
2019-02-20T16:08:38.781Z,54.16
2019-02-20T16:11:08.138Z,54.12
2019-02-20T16:13:37.437Z,54.29
2019-02-20T16:16:06.797Z,54.60
2019-02-20T16:18:36.058Z,54.96
2019-02-20T16:21:08.371Z,54.77
2019-02-20T16:23:37.703Z,55.01
2019-02-20T16:26:07.038Z,55.56
2019-02-20T16:28:36.271Z,55.66
2019-02-20T16:31:05.521Z,55.67
2019-02-20T16:33:34.719Z,56.03
2019-02-20T16:36:04.008Z,55.94
2019-02-20T16:38:33.351Z,56.58
2019-02-20T16:41:04.619Z,56.76
2019-02-20T16:43:32.044Z,56.83
2019-02-20T16:46:01.337Z,57.19
2019-02-20T16:48:30.771Z,57.43
2019-02-20T16:51:00.153Z,57.81
2019-02-20T16:53:29.460Z,57.92
2019-02-20T16:55:58.866Z,57.99
2019-02-20T16:58:28.220Z,58.30
2019-02-20T17:00:57.474Z,58.47
2019-02-20T17:03:26.689Z,58.53
2019-02-20T17:05:55.922Z,59.33
2019-02-20T17:08:25.278Z,59.29
2019-02-20T17:10:54.692Z,59.35
2019-02-20T17:13:23.926Z,59.34
2019-02-20T17:15:53.181Z,59.79
2019-02-20T17:18:22.681Z,59.97
2019-02-20T17:20:51.991Z,59.93
2019-02-20T17:23:21.266Z,59.84
2019-02-20T17:25:50.635Z,60.03
2019-02-20T17:28:19.832Z,60.05
2019-02-20T17:30:55.136Z,60.05
2019-02-20T17:33:24.392Z,60.14
2019-02-20T17:35:53.700Z,60.37
2019-02-20T17:38:22.910Z,60.54
2019-02-20T17:40:52.156Z,60.87
2019-02-20T17:43:21.396Z,60.88
2019-02-20T17:45:50.797Z,60.88
2019-02-20T17:48:20.093Z,60.98
2019-02-20T17:50:49.481Z,61.19
2019-02-20T17:53:18.814Z,61.23
2019-02-20T17:55:48.188Z,61.57
2019-02-20T17:58:17.635Z,61.63
2019-02-20T18:00:46.887Z,61.63
2019-02-20T18:03:16.239Z,61.81
2019-02-20T18:05:49.767Z,61.88
2019-02-20T18:08:19.171Z,62.14
2019-02-20T18:10:48.503Z,62.40
2019-02-20T18:13:19.618Z,62.40
2019-02-20T18:15:46.992Z,62.67
2019-02-20T18:18:16.279Z,62.90
2019-02-20T18:20:45.576Z,62.90
2019-02-20T18:23:14.923Z,62.97
2019-02-20T18:25:44.242Z,63.08
2019-02-20T18:28:13.541Z,63.21
2019-02-20T18:30:43.022Z,63.21
2019-02-20T18:33:12.277Z,63.41
2019-02-20T18:35:41.738Z,63.49
2019-02-20T18:38:11.038Z,63.60
2019-02-20T18:40:40.336Z,63.61
2019-02-20T18:43:09.591Z,63.62
2019-02-20T18:45:38.944Z,63.62
2019-02-20T18:48:08.244Z,63.67
2019-02-20T18:50:37.511Z,63.63
2019-02-20T18:53:06.748Z,63.80
2019-02-20T18:55:36.002Z,63.96
2019-02-20T18:58:05.260Z,63.54
2019-02-20T19:00:34.604Z,63.54
2019-02-20T19:03:03.826Z,63.75
2019-02-20T19:05:33.856Z,63.86
2019-02-20T19:08:21.746Z,63.92
2019-02-20T19:10:57.038Z,63.96
2019-02-20T19:14:01.748Z,63.94
2019-02-20T19:17:00.445Z,63.80
2019-02-20T19:19:49.325Z,63.84
2019-02-20T19:22:41.587Z,63.69
2019-02-20T19:26:00.785Z,63.69
2019-02-20T19:29:06.143Z,63.72
2019-02-20T19:32:10.861Z,63.68
2019-02-20T19:35:16.088Z,63.81
2019-02-20T19:38:28.560Z,63.75
2019-02-20T19:41:51.526Z,63.69
2019-02-20T19:44:55.407Z,63.74
2019-02-20T19:47:54.739Z,63.84
2019-02-20T19:50:48.626Z,63.74
2019-02-20T19:53:36.124Z,63.82
2019-02-20T19:57:05.666Z,63.86
2019-02-20T20:00:19.550Z,63.52
2019-02-20T20:03:07.310Z,63.63
2019-02-20T20:06:09.754Z,63.71
2019-02-20T20:09:24.272Z,63.67
2019-02-20T20:12:41.490Z,63.92
2019-02-20T20:15:44.111Z,63.89
2019-02-20T20:18:42.784Z,63.94
2019-02-20T20:21:33.648Z,64.09
2019-02-20T20:24:42.583Z,64.18
2019-02-20T20:28:11.742Z,64.81
2019-02-20T20:31:21.119Z,64.81
2019-02-20T20:34:20.103Z,64.61
2019-02-20T20:37:26.489Z,64.73
2019-02-20T20:40:41.812Z,64.65
2019-02-20T20:43:47.134Z,65.46
2019-02-20T20:47:03.601Z,65.46
2019-02-20T20:49:55.728Z,65.51
2019-02-20T20:52:51.766Z,65.67
2019-02-20T20:55:57.647Z,66.17
2019-02-20T20:59:17.680Z,66.17
2019-02-20T21:02:01.671Z,66.48
2019-02-20T21:05:05.332Z,66.04
2019-02-20T21:08:08.580Z,66.41
2019-02-20T21:11:18.670Z,66.41
2019-02-20T21:14:28.962Z,67.05
2019-02-20T21:17:09.061Z,68.57
2019-02-20T21:20:06.596Z,65.67
2019-02-20T21:22:59.019Z,65.53
2019-02-20T21:25:56.636Z,66.08
2019-02-20T21:29:03.354Z,66.08
2019-02-20T21:32:03.361Z,65.89
2019-02-20T21:34:54.700Z,66.14
2019-02-20T21:37:37.641Z,66.30
2019-02-20T21:40:17.463Z,66.01
2019-02-20T21:43:11.770Z,66.32
2019-02-20T21:46:13.397Z,66.54
2019-02-20T21:49:03.428Z,66.74
2019-02-20T21:52:04.765Z,66.74
2019-02-20T21:54:59.991Z,66.81
2019-02-20T21:58:01.653Z,66.78
2019-02-20T22:00:46.291Z,66.87
2019-02-20T22:03:45.937Z,66.74
2019-02-20T22:07:03.345Z,68.44
2019-02-20T22:10:01.831Z,66.52
2019-02-20T22:13:07.144Z,66.12
2019-02-20T22:16:06.850Z,66.39
2019-02-20T22:19:04.227Z,66.55
2019-02-20T22:22:24.009Z,66.57
2019-02-20T22:25:43.790Z,67.05
2019-02-20T22:28:57.125Z,67.28
2019-02-20T22:31:53.295Z,67.66
2019-02-20T22:34:58.061Z,67.83
2019-02-20T22:37:46.823Z,67.73
2019-02-20T22:40:27.104Z,68.12
2019-02-20T22:43:38.325Z,68.23
2019-02-20T22:46:30.722Z,68.73
2019-02-20T22:49:40.332Z,68.73
2019-02-20T22:52:20.226Z,68.74
2019-02-20T22:55:26.231Z,68.79
2019-02-20T22:59:04.802Z,68.79
2019-02-20T23:02:00.350Z,68.98
2019-02-20T23:04:58.839Z,69.16
2019-02-20T23:08:08.278Z,69.16
2019-02-20T23:11:21.696Z,69.13
2019-02-20T23:14:32.965Z,68.71
2019-02-20T23:17:02.322Z,68.68
2019-02-20T23:19:31.710Z,68.52
2019-02-20T23:22:01.047Z,68.62
2019-02-20T23:24:30.427Z,68.62
2019-02-20T23:26:59.764Z,68.59
2019-02-20T23:29:29.199Z,68.53
2019-02-20T23:31:58.669Z,68.44
2019-02-20T23:34:27.939Z,68.50
2019-02-20T23:36:57.295Z,68.50
2019-02-20T23:39:26.677Z,68.39
2019-02-20T23:41:58.731Z,68.33
2019-02-20T23:44:28.179Z,68.45
2019-02-20T23:46:57.669Z,68.45
2019-02-20T23:49:27.024Z,68.29
2019-02-20T23:51:56.779Z,68.29
2019-02-20T23:54:26.179Z,68.26
2019-02-20T23:56:55.526Z,68.29
2019-02-20T23:59:25.542Z,68.21
